createdAt,value
2018-03-16T00:00:13.311Z,7.93
2018-03-16T00:02:39.261Z,7.59
2018-03-16T00:05:05.199Z,7.78
2018-03-16T00:07:31.146Z,7.91
2018-03-16T00:09:57.093Z,8.10
2018-03-16T00:12:23.036Z,7.89
2018-03-16T00:14:48.984Z,7.83
2018-03-16T00:17:14.929Z,7.89
2018-03-16T00:19:40.870Z,7.87
2018-03-16T00:22:06.807Z,7.68
2018-03-16T00:24:32.771Z,7.61
2018-03-16T00:26:58.725Z,7.72
2018-03-16T00:29:24.785Z,7.59
2018-03-16T00:31:50.747Z,7.67
2018-03-16T00:34:16.687Z,7.91
2018-03-16T00:36:42.657Z,7.88
2018-03-16T00:39:08.589Z,7.55
2018-03-16T00:41:34.548Z,7.42
2018-03-16T00:44:00.501Z,7.50
2018-03-16T00:46:26.458Z,7.95
2018-03-16T00:48:52.409Z,7.60
2018-03-16T00:51:18.350Z,7.89
2018-03-16T00:53:44.304Z,7.76
2018-03-16T00:56:10.276Z,8.00
2018-03-16T00:58:36.230Z,7.77
2018-03-16T01:01:06.784Z,7.98
2018-03-16T01:03:32.769Z,7.87
2018-03-16T01:05:58.746Z,8.07
2018-03-16T01:08:24.716Z,7.85
2018-03-16T01:10:50.694Z,8.03
2018-03-16T01:13:16.633Z,8.19
2018-03-16T01:15:42.593Z,8.06
2018-03-16T01:18:08.531Z,7.83
2018-03-16T01:20:34.494Z,7.99
2018-03-16T01:23:00.452Z,7.92
2018-03-16T01:25:26.402Z,7.61
2018-03-16T01:27:52.393Z,7.58
2018-03-16T01:30:18.384Z,7.53
2018-03-16T01:32:44.328Z,7.55
2018-03-16T01:35:10.302Z,7.62
2018-03-16T01:37:36.246Z,7.73
2018-03-16T01:40:02.204Z,7.80
2018-03-16T01:42:28.149Z,7.46
2018-03-16T01:44:54.098Z,7.69
2018-03-16T01:47:20.037Z,7.12
2018-03-16T01:49:45.986Z,7.60
2018-03-16T01:52:11.942Z,7.46
2018-03-16T01:54:37.900Z,7.79
2018-03-16T01:57:03.860Z,7.85
2018-03-16T01:59:29.824Z,7.67
2018-03-16T02:01:55.758Z,7.99
2018-03-16T02:04:21.704Z,7.61
2018-03-16T02:06:47.669Z,7.78
2018-03-16T02:09:13.632Z,8.06
2018-03-16T02:11:39.558Z,7.98
2018-03-16T02:14:05.519Z,7.93
2018-03-16T02:16:31.461Z,7.91
2018-03-16T02:18:57.390Z,7.81
2018-03-16T02:21:23.336Z,7.87
2018-03-16T02:23:49.290Z,7.63
2018-03-16T02:26:15.218Z,7.91
2018-03-16T02:28:41.185Z,8.07
2018-03-16T02:31:07.166Z,7.88
2018-03-16T02:33:33.102Z,7.92
2018-03-16T02:35:59.049Z,7.94
2018-03-16T02:38:24.995Z,7.88
2018-03-16T02:40:50.961Z,7.94
2018-03-16T02:43:16.926Z,7.67
2018-03-16T02:45:42.899Z,7.83
2018-03-16T02:48:08.838Z,7.79
2018-03-16T02:50:34.777Z,7.74
2018-03-16T02:53:00.718Z,7.86
2018-03-16T02:55:26.669Z,7.97
2018-03-16T02:57:52.647Z,7.77
2018-03-16T03:00:18.590Z,7.70
2018-03-16T03:02:44.525Z,7.59
2018-03-16T03:05:10.470Z,7.65
2018-03-16T03:07:36.449Z,7.51
2018-03-16T03:10:03.491Z,7.43
2018-03-16T03:12:29.424Z,7.66
2018-03-16T03:14:55.402Z,7.70
2018-03-16T03:17:21.353Z,7.81
2018-03-16T03:19:47.290Z,7.87
2018-03-16T03:22:13.245Z,7.88
2018-03-16T03:24:39.190Z,7.80
2018-03-16T03:27:05.149Z,7.87
2018-03-16T03:29:31.099Z,7.89
2018-03-16T03:31:57.046Z,7.74
2018-03-16T03:34:22.985Z,7.70
2018-03-16T03:36:48.931Z,7.86
2018-03-16T03:39:14.901Z,7.49
2018-03-16T03:41:40.853Z,7.53
2018-03-16T03:44:06.812Z,7.69
2018-03-16T03:46:32.743Z,7.73
2018-03-16T03:48:58.668Z,7.60
2018-03-16T03:51:24.625Z,7.72
2018-03-16T03:53:50.581Z,7.57
2018-03-16T03:56:16.525Z,7.43
2018-03-16T03:58:42.501Z,7.66
2018-03-16T04:01:08.401Z,7.69
2018-03-16T04:03:34.368Z,7.68
2018-03-16T04:06:00.301Z,7.71
2018-03-16T04:08:26.239Z,7.76
2018-03-16T04:10:52.197Z,7.39
2018-03-16T04:13:18.138Z,7.76
2018-03-16T04:15:44.111Z,7.66
2018-03-16T04:18:10.062Z,7.63
2018-03-16T04:20:36.019Z,7.43
2018-03-16T04:23:01.983Z,7.52
2018-03-16T04:25:27.924Z,7.52
2018-03-16T04:27:53.861Z,7.91
2018-03-16T04:30:19.820Z,7.94
2018-03-16T04:32:45.777Z,7.46
2018-03-16T04:35:11.749Z,7.78
2018-03-16T04:37:37.807Z,7.66
2018-03-16T04:40:03.786Z,7.59
2018-03-16T04:42:29.730Z,7.53
2018-03-16T04:44:55.677Z,7.53
2018-03-16T04:47:21.685Z,7.58
2018-03-16T04:49:47.658Z,7.37
2018-03-16T04:52:13.597Z,7.41
2018-03-16T04:54:39.535Z,7.71
2018-03-16T04:57:05.490Z,7.46
2018-03-16T04:59:31.419Z,7.58
2018-03-16T05:01:57.347Z,7.76
2018-03-16T05:04:23.326Z,7.61
2018-03-16T05:06:49.286Z,7.47
2018-03-16T05:09:15.285Z,7.55
2018-03-16T05:11:41.256Z,7.49
2018-03-16T05:14:07.236Z,7.50
2018-03-16T05:16:34.914Z,7.39
2018-03-16T05:19:01.284Z,7.81
2018-03-16T05:21:27.242Z,7.93
2018-03-16T05:23:53.198Z,7.80
2018-03-16T05:26:19.146Z,7.81
2018-03-16T05:28:45.093Z,7.64
2018-03-16T05:31:11.050Z,7.65
2018-03-16T05:33:37.023Z,7.82
2018-03-16T05:36:02.982Z,7.67
2018-03-16T05:38:30.019Z,7.44
2018-03-16T05:40:56.251Z,7.63
2018-03-16T05:43:22.261Z,7.71
2018-03-16T05:45:48.217Z,7.72
2018-03-16T05:48:14.162Z,7.73
2018-03-16T05:50:40.136Z,7.77
2018-03-16T05:53:06.091Z,7.81
2018-03-16T05:55:32.065Z,7.58
2018-03-16T05:57:58.001Z,7.29
2018-03-16T06:00:23.943Z,7.21
2018-03-16T06:02:49.875Z,7.33
2018-03-16T06:05:15.841Z,7.22
2018-03-16T06:07:41.789Z,7.17
2018-03-16T06:10:07.745Z,7.30
2018-03-16T06:12:33.717Z,7.41
2018-03-16T06:14:59.674Z,7.50
2018-03-16T06:17:25.633Z,7.46
2018-03-16T06:19:51.567Z,7.35
2018-03-16T06:22:17.518Z,7.07
2018-03-16T06:24:43.463Z,7.24
2018-03-16T06:27:09.403Z,7.12
2018-03-16T06:29:35.336Z,7.27
2018-03-16T06:32:01.287Z,7.14
2018-03-16T06:34:27.265Z,7.06
2018-03-16T06:36:53.194Z,7.08
2018-03-16T06:39:19.173Z,7.39
2018-03-16T06:41:45.091Z,7.32
2018-03-16T06:44:11.024Z,7.13
2018-03-16T06:46:36.955Z,7.18
2018-03-16T06:49:02.894Z,7.48
2018-03-16T06:51:28.853Z,7.36
2018-03-16T06:53:54.787Z,7.39
2018-03-16T06:56:20.719Z,7.32
2018-03-16T06:58:46.679Z,7.10
2018-03-16T07:01:12.641Z,7.07
2018-03-16T07:03:38.588Z,6.94
2018-03-16T07:06:04.550Z,7.05
2018-03-16T07:08:30.520Z,7.12
2018-03-16T07:10:56.469Z,6.99
2018-03-16T07:13:22.405Z,6.99
2018-03-16T07:15:48.359Z,6.93
2018-03-16T07:18:14.310Z,7.09
2018-03-16T07:20:40.247Z,7.03
2018-03-16T07:23:06.185Z,6.99
2018-03-16T07:25:32.119Z,6.96
2018-03-16T07:27:58.063Z,7.14
2018-03-16T07:30:24.014Z,7.31
2018-03-16T07:32:49.975Z,7.30
2018-03-16T07:35:15.931Z,6.86
2018-03-16T07:37:41.866Z,6.86
2018-03-16T07:40:07.860Z,7.10
2018-03-16T07:42:33.793Z,7.02
2018-03-16T07:44:59.749Z,6.87
2018-03-16T07:47:25.716Z,7.11
2018-03-16T07:49:51.697Z,6.63
2018-03-16T07:52:17.631Z,6.81
2018-03-16T07:54:43.593Z,7.12
2018-03-16T07:57:09.563Z,7.18
2018-03-16T07:59:35.507Z,7.31
2018-03-16T08:02:01.457Z,7.07
2018-03-16T08:04:27.416Z,7.26
2018-03-16T08:06:53.353Z,7.28
2018-03-16T08:09:19.302Z,7.34
2018-03-16T08:11:45.242Z,7.19
2018-03-16T08:14:11.202Z,7.01
2018-03-16T08:16:37.150Z,7.40
2018-03-16T08:19:03.138Z,7.22
2018-03-16T08:21:29.097Z,7.48
2018-03-16T08:23:55.077Z,7.61
2018-03-16T08:26:21.018Z,7.21
2018-03-16T08:28:46.966Z,7.36
2018-03-16T08:31:12.898Z,7.27
2018-03-16T08:33:38.872Z,7.16
2018-03-16T08:36:04.836Z,7.32
2018-03-16T08:38:30.809Z,7.35
2018-03-16T08:40:56.744Z,7.09
2018-03-16T08:43:22.678Z,7.32
2018-03-16T08:45:48.630Z,7.20
2018-03-16T08:48:14.569Z,6.85
2018-03-16T08:50:40.506Z,6.99
2018-03-16T08:53:06.482Z,7.30
2018-03-16T08:55:32.415Z,7.07
2018-03-16T08:57:58.342Z,6.96
2018-03-16T09:00:24.284Z,6.91
2018-03-16T09:02:50.262Z,7.13
2018-03-16T09:05:16.192Z,6.94
2018-03-16T09:07:42.154Z,6.99
2018-03-16T09:10:08.099Z,7.02
2018-03-16T09:12:34.110Z,6.86
2018-03-16T09:15:00.039Z,6.90
2018-03-16T09:17:26.005Z,7.04
2018-03-16T09:19:52.008Z,6.78
2018-03-16T09:22:17.980Z,6.44
2018-03-16T09:24:43.977Z,6.53
2018-03-16T09:27:09.922Z,6.62
2018-03-16T09:29:35.867Z,6.84
2018-03-16T09:32:01.814Z,6.59
2018-03-16T09:34:27.782Z,6.44
2018-03-16T09:36:53.734Z,6.91
2018-03-16T09:39:19.692Z,6.69
2018-03-16T09:41:45.628Z,7.07
2018-03-16T09:44:11.575Z,6.77
2018-03-16T09:46:37.509Z,6.66
2018-03-16T09:49:03.470Z,6.63
2018-03-16T09:51:29.406Z,6.40
2018-03-16T09:53:55.337Z,6.65
2018-03-16T09:56:21.338Z,6.47
2018-03-16T09:58:47.265Z,6.52
2018-03-16T10:01:13.223Z,6.38
2018-03-16T10:03:39.158Z,6.40
2018-03-16T10:06:05.106Z,6.56
2018-03-16T10:08:31.110Z,6.45
2018-03-16T10:10:57.062Z,6.41
2018-03-16T10:13:23.007Z,6.35
2018-03-16T10:15:48.973Z,6.12
2018-03-16T10:18:14.926Z,6.62
2018-03-16T10:20:40.880Z,6.47
2018-03-16T10:23:06.843Z,6.56
2018-03-16T10:25:32.809Z,6.43
2018-03-16T10:27:58.799Z,6.69
2018-03-16T10:30:24.760Z,6.61
2018-03-16T10:32:50.699Z,6.54
2018-03-16T10:35:16.667Z,6.30
2018-03-16T10:37:42.619Z,6.22
2018-03-16T10:40:08.565Z,6.42
2018-03-16T10:42:34.505Z,6.64
2018-03-16T10:45:00.446Z,6.34
2018-03-16T10:47:26.389Z,6.51
2018-03-16T10:49:52.361Z,6.17
2018-03-16T10:52:18.316Z,6.49
2018-03-16T10:54:44.327Z,6.37
2018-03-16T10:57:10.273Z,6.37
2018-03-16T10:59:36.243Z,6.16
2018-03-16T11:02:02.216Z,6.30
2018-03-16T11:04:28.194Z,6.26
2018-03-16T11:06:54.159Z,6.42
2018-03-16T11:09:20.107Z,6.18
2018-03-16T11:11:46.041Z,6.25
2018-03-16T11:14:11.999Z,6.41
2018-03-16T11:16:37.969Z,6.23
2018-03-16T11:19:03.925Z,6.17
2018-03-16T11:21:29.894Z,6.39
2018-03-16T11:23:55.847Z,6.50
2018-03-16T11:26:21.801Z,6.24
2018-03-16T11:28:47.785Z,5.95
2018-03-16T11:31:13.768Z,6.44
2018-03-16T11:33:39.745Z,6.33
2018-03-16T11:36:05.683Z,6.22
2018-03-16T11:38:31.653Z,6.20
2018-03-16T11:40:57.608Z,6.38
2018-03-16T11:43:23.583Z,6.39
2018-03-16T11:45:49.549Z,5.93
2018-03-16T11:48:15.527Z,6.38
2018-03-16T11:50:41.475Z,5.96
2018-03-16T11:53:07.425Z,6.02
2018-03-16T11:55:33.381Z,5.91
2018-03-16T11:57:59.337Z,5.81
2018-03-16T12:00:25.269Z,6.25
2018-03-16T12:02:51.208Z,6.20
2018-03-16T12:05:17.346Z,6.19
2018-03-16T12:07:43.317Z,5.73
2018-03-16T12:10:09.259Z,5.97
2018-03-16T12:12:35.199Z,5.71
2018-03-16T12:15:01.159Z,5.76
2018-03-16T12:17:27.097Z,5.62
2018-03-16T12:19:53.038Z,5.61
2018-03-16T12:22:18.988Z,5.54
2018-03-16T12:24:44.948Z,5.65
2018-03-16T12:27:10.895Z,5.96
2018-03-16T12:29:36.846Z,5.86
2018-03-16T12:32:02.818Z,5.80
2018-03-16T12:34:28.761Z,6.07
2018-03-16T12:36:54.719Z,5.60
2018-03-16T12:39:20.698Z,5.35
2018-03-16T12:41:46.634Z,5.29
2018-03-16T12:44:12.581Z,5.64
2018-03-16T12:46:38.537Z,5.54
2018-03-16T12:49:04.494Z,5.85
2018-03-16T12:51:30.459Z,5.93
2018-03-16T12:53:56.413Z,5.92
2018-03-16T12:56:22.357Z,5.91
2018-03-16T12:58:48.293Z,5.48
2018-03-16T13:01:14.228Z,5.11
2018-03-16T13:03:40.183Z,5.27
2018-03-16T13:06:06.134Z,5.27
2018-03-16T13:08:32.093Z,5.20
2018-03-16T13:10:58.046Z,5.18
2018-03-16T13:13:24.007Z,5.44
2018-03-16T13:15:49.942Z,5.37
2018-03-16T13:18:15.874Z,5.59
2018-03-16T13:20:42.164Z,5.39
2018-03-16T13:23:08.106Z,4.92
2018-03-16T13:25:34.038Z,5.18
2018-03-16T13:27:59.992Z,4.94
2018-03-16T13:30:25.928Z,5.12
2018-03-16T13:32:51.878Z,4.87
2018-03-16T13:35:17.832Z,5.29
2018-03-16T13:37:43.782Z,5.33
2018-03-16T13:40:09.734Z,5.28
2018-03-16T13:42:35.674Z,5.29
2018-03-16T13:45:01.634Z,5.09
2018-03-16T13:47:27.618Z,5.24
2018-03-16T13:49:53.564Z,5.01
2018-03-16T13:52:19.523Z,4.57
2018-03-16T13:54:45.458Z,5.18
2018-03-16T13:57:11.392Z,5.71
2018-03-16T13:59:37.374Z,5.51
2018-03-16T14:02:03.322Z,5.60
2018-03-16T14:04:29.283Z,5.73
2018-03-16T14:06:55.242Z,5.43
2018-03-16T14:09:21.198Z,5.31
2018-03-16T14:11:47.172Z,5.24
2018-03-16T14:14:13.164Z,5.71
2018-03-16T14:16:39.136Z,5.02
2018-03-16T14:19:05.077Z,4.98
2018-03-16T14:21:31.034Z,4.82
2018-03-16T14:23:56.996Z,5.14
2018-03-16T14:26:22.968Z,4.87
2018-03-16T14:28:48.906Z,4.78
2018-03-16T14:31:14.875Z,4.71
2018-03-16T14:33:40.850Z,4.95
2018-03-16T14:36:06.794Z,5.33
2018-03-16T14:38:32.764Z,5.17
2018-03-16T14:40:58.700Z,5.32
2018-03-16T14:43:24.684Z,5.32
2018-03-16T14:45:50.628Z,5.18
2018-03-16T14:48:16.584Z,5.31
2018-03-16T14:50:42.542Z,4.94
2018-03-16T14:53:08.517Z,4.92
2018-03-16T14:55:34.494Z,5.15
2018-03-16T14:58:00.423Z,5.23
2018-03-16T15:00:26.382Z,5.02
2018-03-16T15:02:52.317Z,4.74
2018-03-16T15:05:18.256Z,4.77
2018-03-16T15:07:44.212Z,4.80
2018-03-16T15:10:10.207Z,4.94
2018-03-16T15:12:36.111Z,5.03
2018-03-16T15:15:02.063Z,4.70
2018-03-16T15:17:28.026Z,4.90
2018-03-16T15:19:53.966Z,4.65
2018-03-16T15:22:19.920Z,4.81
2018-03-16T15:24:45.856Z,5.12
2018-03-16T15:27:11.796Z,5.05
2018-03-16T15:29:37.820Z,4.77
2018-03-16T15:32:03.764Z,5.25
2018-03-16T15:34:29.725Z,4.71
2018-03-16T15:36:55.671Z,4.81
2018-03-16T15:39:21.625Z,5.18
2018-03-16T15:41:47.569Z,4.51
2018-03-16T15:44:13.519Z,4.72
2018-03-16T15:46:39.459Z,4.69
2018-03-16T15:49:05.391Z,4.25
2018-03-16T15:51:31.325Z,4.60
2018-03-16T15:53:57.261Z,4.55
2018-03-16T15:56:23.207Z,4.25
2018-03-16T15:58:49.158Z,4.27
2018-03-16T16:01:15.111Z,4.39
2018-03-16T16:03:41.064Z,4.70
2018-03-16T16:06:07.028Z,4.35
2018-03-16T16:08:32.971Z,4.52
2018-03-16T16:10:58.985Z,4.44
2018-03-16T16:13:24.901Z,4.48
2018-03-16T16:15:50.875Z,4.66
2018-03-16T16:18:16.820Z,4.56
2018-03-16T16:20:42.825Z,4.22
2018-03-16T16:23:08.783Z,4.26
2018-03-16T16:25:34.779Z,4.50
2018-03-16T16:28:00.723Z,4.27
2018-03-16T16:30:26.675Z,4.45
2018-03-16T16:32:52.634Z,4.48
2018-03-16T16:35:18.595Z,4.21
2018-03-16T16:37:44.565Z,4.37
2018-03-16T16:40:10.528Z,4.02
2018-03-16T16:42:36.493Z,4.33
2018-03-16T16:45:02.449Z,4.24
2018-03-16T16:47:28.405Z,4.12
2018-03-16T16:49:54.367Z,3.99
2018-03-16T16:52:20.303Z,3.95
2018-03-16T16:54:46.267Z,4.44
2018-03-16T16:57:12.249Z,4.15
2018-03-16T16:59:38.211Z,3.98
2018-03-16T17:02:04.153Z,4.23
2018-03-16T17:04:30.110Z,4.26
2018-03-16T17:06:56.072Z,4.12
2018-03-16T17:09:22.039Z,4.16
2018-03-16T17:11:48.001Z,4.88
2018-03-16T17:14:13.961Z,4.10
2018-03-16T17:16:39.925Z,4.21
2018-03-16T17:19:05.907Z,4.06
2018-03-16T17:21:31.942Z,3.93
2018-03-16T17:23:57.899Z,3.93
2018-03-16T17:26:23.844Z,4.22
2018-03-16T17:28:49.823Z,3.88
2018-03-16T17:31:15.771Z,3.87
2018-03-16T17:33:41.745Z,4.08
2018-03-16T17:36:07.707Z,3.79
2018-03-16T17:38:33.704Z,4.33
2018-03-16T17:40:59.643Z,4.20
2018-03-16T17:43:25.614Z,4.01
2018-03-16T17:45:51.583Z,4.20
2018-03-16T17:48:17.520Z,4.06
2018-03-16T17:50:43.476Z,3.77
2018-03-16T17:53:09.434Z,3.97
2018-03-16T17:55:35.406Z,3.96
2018-03-16T17:58:01.361Z,4.08
2018-03-16T18:00:27.310Z,3.86
2018-03-16T18:02:53.265Z,4.00
2018-03-16T18:05:19.238Z,4.00
2018-03-16T18:07:45.188Z,4.05
2018-03-16T18:10:11.133Z,3.91
2018-03-16T18:12:37.075Z,4.11
2018-03-16T18:15:03.030Z,4.11
2018-03-16T18:17:29.006Z,3.73
2018-03-16T18:19:54.949Z,4.17
2018-03-16T18:22:20.906Z,3.85
2018-03-16T18:24:46.891Z,4.17
2018-03-16T18:27:12.852Z,4.22
2018-03-16T18:29:38.800Z,3.96
2018-03-16T18:32:04.760Z,3.85
2018-03-16T18:34:30.722Z,4.12
2018-03-16T18:36:56.672Z,3.60
2018-03-16T18:39:22.629Z,4.10
2018-03-16T18:41:48.580Z,3.77
2018-03-16T18:44:14.578Z,3.76
2018-03-16T18:46:40.604Z,3.74
2018-03-16T18:49:06.586Z,3.57
2018-03-16T18:51:32.531Z,3.51
2018-03-16T18:53:58.598Z,3.51
2018-03-16T18:56:24.614Z,3.69
2018-03-16T18:58:50.655Z,3.67
2018-03-16T19:01:16.620Z,3.62
2018-03-16T19:03:42.587Z,3.54
2018-03-16T19:06:08.536Z,3.56
2018-03-16T19:08:34.547Z,3.67
2018-03-16T19:11:00.498Z,3.45
2018-03-16T19:13:26.502Z,3.57
2018-03-16T19:15:52.464Z,3.40
2018-03-16T19:18:18.527Z,3.48
2018-03-16T19:20:44.539Z,3.41
2018-03-16T19:23:10.518Z,3.36
2018-03-16T19:25:36.481Z,3.82
2018-03-16T19:28:02.601Z,3.51
2018-03-16T19:30:28.553Z,3.43
2018-03-16T19:32:54.505Z,3.60
2018-03-16T19:35:20.477Z,3.49
2018-03-16T19:37:46.485Z,3.53
2018-03-16T19:40:12.417Z,3.66
2018-03-16T19:42:38.355Z,3.49
2018-03-16T19:45:04.395Z,3.41
2018-03-16T19:47:30.349Z,3.34
2018-03-16T19:49:56.333Z,3.11
2018-03-16T19:52:22.285Z,3.38
2018-03-16T19:54:48.235Z,2.99
2018-03-16T19:57:14.221Z,3.08
2018-03-16T19:59:40.241Z,3.09
2018-03-16T20:02:06.264Z,3.40
2018-03-16T20:04:32.227Z,3.32
2018-03-16T20:06:58.189Z,3.01
2018-03-16T20:09:24.147Z,2.86
2018-03-16T20:11:50.123Z,3.19
2018-03-16T20:14:16.088Z,3.22
2018-03-16T20:16:42.027Z,3.32
2018-03-16T20:19:07.960Z,3.04
2018-03-16T20:21:33.922Z,2.88
2018-03-16T20:23:59.861Z,3.18
2018-03-16T20:26:25.886Z,3.43
2018-03-16T20:28:51.888Z,3.17
2018-03-16T20:31:17.861Z,2.90
2018-03-16T20:33:43.839Z,3.31
2018-03-16T20:36:09.805Z,3.28
2018-03-16T20:38:35.740Z,2.96
2018-03-16T20:41:01.702Z,3.36
2018-03-16T20:43:27.646Z,3.07
2018-03-16T20:45:53.598Z,3.22
2018-03-16T20:48:19.570Z,3.21
2018-03-16T20:50:45.530Z,3.19
2018-03-16T20:53:11.528Z,3.05
2018-03-16T20:55:37.480Z,3.19
2018-03-16T20:58:03.434Z,3.38
2018-03-16T21:00:29.448Z,3.36
2018-03-16T21:02:55.416Z,3.27
2018-03-16T21:05:21.389Z,3.55
2018-03-16T21:07:47.371Z,3.40
2018-03-16T21:10:13.336Z,3.30
2018-03-16T21:12:39.275Z,3.42
2018-03-16T21:15:05.252Z,3.21
2018-03-16T21:17:31.230Z,3.00
2018-03-16T21:19:57.274Z,3.12
2018-03-16T21:22:23.264Z,3.41
2018-03-16T21:24:49.220Z,3.40
2018-03-16T21:27:15.168Z,3.11
2018-03-16T21:29:41.126Z,3.49
2018-03-16T21:32:07.066Z,3.49
2018-03-16T21:34:33.001Z,2.91
2018-03-16T21:36:58.932Z,2.94
2018-03-16T21:39:24.968Z,3.07
2018-03-16T21:41:50.914Z,2.90
2018-03-16T21:44:16.854Z,2.65
2018-03-16T21:46:42.790Z,2.84
2018-03-16T21:49:08.735Z,2.50
2018-03-16T21:51:34.682Z,2.52
2018-03-16T21:54:00.722Z,2.65
2018-03-16T21:56:26.844Z,2.77
2018-03-16T21:58:52.828Z,2.59
2018-03-16T22:01:19.134Z,2.63
2018-03-16T22:03:47.276Z,3.07
2018-03-16T22:08:45.632Z,2.50
2018-03-16T22:11:11.593Z,2.61
2018-03-16T22:13:37.558Z,2.71
2018-03-16T22:16:03.504Z,2.49
2018-03-16T22:18:29.459Z,2.24
2018-03-16T22:20:55.426Z,2.36
2018-03-16T22:23:21.356Z,2.42
2018-03-16T22:25:47.303Z,2.55
2018-03-16T22:28:13.237Z,2.23
2018-03-16T22:30:39.267Z,2.15
2018-03-16T22:33:05.256Z,2.29
2018-03-16T22:35:31.215Z,2.22
2018-03-16T22:37:57.169Z,2.37
2018-03-16T22:40:23.126Z,2.35
2018-03-16T22:42:49.086Z,2.71
2018-03-16T22:45:15.027Z,2.40
2018-03-16T22:47:40.976Z,2.77
2018-03-16T22:50:06.920Z,2.45
2018-03-16T22:52:32.873Z,2.73
2018-03-16T22:54:58.806Z,2.58
2018-03-16T22:57:24.748Z,2.48
2018-03-16T22:59:50.683Z,2.53
2018-03-16T23:02:16.635Z,3.03
2018-03-16T23:04:42.581Z,2.93
2018-03-16T23:07:08.514Z,2.61
2018-03-16T23:09:34.444Z,2.92
2018-03-16T23:12:00.375Z,2.51
2018-03-16T23:14:26.340Z,2.59
2018-03-16T23:16:52.300Z,2.70
2018-03-16T23:19:18.293Z,2.57
2018-03-16T23:21:44.235Z,2.47
2018-03-16T23:24:10.200Z,2.24
2018-03-16T23:26:36.161Z,1.77
2018-03-16T23:29:02.097Z,1.88
2018-03-16T23:31:28.060Z,1.95
2018-03-16T23:33:53.996Z,1.69
2018-03-16T23:36:19.962Z,1.82
2018-03-16T23:38:45.906Z,1.88
2018-03-16T23:41:11.855Z,1.72
2018-03-16T23:43:37.813Z,1.71
2018-03-16T23:46:03.755Z,1.39
2018-03-16T23:48:29.694Z,1.15
2018-03-16T23:50:55.649Z,1.36
2018-03-16T23:53:21.598Z,1.37
2018-03-16T23:55:47.533Z,1.52
2018-03-16T23:58:13.490Z,1.71
